sensor_id;sensor_type;location;lat;lon;timestamp;P1;durP1;ratioP1;P2;durP2;ratioP2
817;SDS011;391;51.052;6.954;2023-10-13T00:00:10;14.23;;;13.13;;
817;SDS011;391;51.052;6.954;2023-10-13T00:02:28;13.40;;;12.30;;
817;SDS011;391;51.052;6.954;2023-10-13T00:04:32;14.87;;;12.47;;
817;SDS011;391;51.052;6.954;2023-10-13T00:06:38;13.83;;;12.53;;
817;SDS011;391;51.052;6.954;2023-10-13T00:08:40;13.70;;;12.70;;
817;SDS011;391;51.052;6.954;2023-10-13T00:10:45;13.53;;;12.10;;
817;SDS011;391;51.052;6.954;2023-10-13T00:12:49;14.47;;;13.17;;
817;SDS011;391;51.052;6.954;2023-10-13T00:14:54;13.50;;;12.20;;
817;SDS011;391;51.052;6.954;2023-10-13T00:16:57;14.80;;;13.50;;
817;SDS011;391;51.052;6.954;2023-10-13T00:19:06;14.30;;;13.17;;
817;SDS011;391;51.052;6.954;2023-10-13T00:21:13;15.10;;;13.77;;
817;SDS011;391;51.052;6.954;2023-10-13T00:23:22;15.67;;;14.27;;
817;SDS011;391;51.052;6.954;2023-10-13T00:25:29;20.40;;;14.77;;
817;SDS011;391;51.052;6.954;2023-10-13T00:27:46;16.13;;;14.50;;
817;SDS011;391;51.052;6.954;2023-10-13T00:29:54;17.60;;;15.77;;
817;SDS011;391;51.052;6.954;2023-10-13T00:32:17;44.33;;;40.07;;
817;SDS011;391;51.052;6.954;2023-10-13T00:34:29;25.23;;;22.70;;
817;SDS011;391;51.052;6.954;2023-10-13T00:36:34;17.13;;;15.63;;
817;SDS011;391;51.052;6.954;2023-10-13T00:38:38;16.53;;;15.13;;
817;SDS011;391;51.052;6.954;2023-10-13T00:40:42;20.20;;;17.93;;
817;SDS011;391;51.052;6.954;2023-10-13T00:42:47;19.40;;;17.23;;
817;SDS011;391;51.052;6.954;2023-10-13T00:44:54;16.47;;;15.17;;
817;SDS011;391;51.052;6.954;2023-10-13T00:46:57;15.70;;;14.30;;
817;SDS011;391;51.052;6.954;2023-10-13T00:49:01;16.10;;;14.67;;
817;SDS011;391;51.052;6.954;2023-10-13T00:51:06;15.50;;;14.17;;
817;SDS011;391;51.052;6.954;2023-10-13T00:53:18;13.37;;;12.30;;
817;SDS011;391;51.052;6.954;2023-10-13T00:55:23;14.43;;;12.90;;
817;SDS011;391;51.052;6.954;2023-10-13T00:57:29;14.00;;;12.70;;
817;SDS011;391;51.052;6.954;2023-10-13T00:59:33;14.27;;;13.17;;
817;SDS011;391;51.052;6.954;2023-10-13T01:01:38;13.73;;;12.53;;
817;SDS011;391;51.052;6.954;2023-10-13T01:03:45;13.73;;;12.63;;
817;SDS011;391;51.052;6.954;2023-10-13T01:05:51;13.43;;;12.30;;
817;SDS011;391;51.052;6.954;2023-10-13T01:07:56;13.43;;;12.40;;
817;SDS011;391;51.052;6.954;2023-10-13T01:10:03;15.20;;;12.70;;
817;SDS011;391;51.052;6.954;2023-10-13T01:12:07;14.07;;;12.77;;
817;SDS011;391;51.052;6.954;2023-10-13T01:14:10;14.33;;;13.13;;
817;SDS011;391;51.052;6.954;2023-10-13T01:16:15;14.83;;;13.13;;
817;SDS011;391;51.052;6.954;2023-10-13T01:18:19;13.80;;;12.70;;
817;SDS011;391;51.052;6.954;2023-10-13T01:20:23;14.57;;;13.47;;
817;SDS011;391;51.052;6.954;2023-10-13T01:22:28;13.50;;;12.33;;
817;SDS011;391;51.052;6.954;2023-10-13T01:24:32;14.00;;;12.90;;
817;SDS011;391;51.052;6.954;2023-10-13T01:26:37;14.03;;;12.73;;
817;SDS011;391;51.052;6.954;2023-10-13T01:28:41;12.87;;;11.67;;
817;SDS011;391;51.052;6.954;2023-10-13T01:30:52;13.30;;;12.20;;
817;SDS011;391;51.052;6.954;2023-10-13T01:32:55;14.10;;;12.80;;
817;SDS011;391;51.052;6.954;2023-10-13T01:35:03;13.67;;;12.33;;
817;SDS011;391;51.052;6.954;2023-10-13T01:37:08;14.00;;;12.70;;
817;SDS011;391;51.052;6.954;2023-10-13T01:39:13;14.07;;;12.77;;
817;SDS011;391;51.052;6.954;2023-10-13T01:41:20;14.90;;;13.70;;
817;SDS011;391;51.052;6.954;2023-10-13T01:43:24;15.10;;;14.10;;
817;SDS011;391;51.052;6.954;2023-10-13T01:45:27;15.50;;;14.20;;
817;SDS011;391;51.052;6.954;2023-10-13T01:47:31;15.40;;;14.10;;
817;SDS011;391;51.052;6.954;2023-10-13T01:49:35;13.27;;;12.20;;
817;SDS011;391;51.052;6.954;2023-10-13T01:51:44;15.27;;;14.03;;
817;SDS011;391;51.052;6.954;2023-10-13T01:53:49;14.27;;;13.07;;
817;SDS011;391;51.052;6.954;2023-10-13T01:55:58;14.03;;;12.60;;
817;SDS011;391;51.052;6.954;2023-10-13T01:58:02;14.67;;;13.37;;
817;SDS011;391;51.052;6.954;2023-10-13T02:00:16;14.07;;;12.50;;
817;SDS011;391;51.052;6.954;2023-10-13T02:02:21;14.97;;;13.67;;
817;SDS011;391;51.052;6.954;2023-10-13T02:04:32;14.57;;;13.37;;
817;SDS011;391;51.052;6.954;2023-10-13T02:06:36;13.47;;;12.13;;
817;SDS011;391;51.052;6.954;2023-10-13T02:08:40;14.30;;;13.07;;
817;SDS011;391;51.052;6.954;2023-10-13T02:10:45;13.83;;;12.60;;
817;SDS011;391;51.052;6.954;2023-10-13T02:12:49;15.17;;;13.87;;
817;SDS011;391;51.052;6.954;2023-10-13T02:14:59;13.20;;;12.17;;
817;SDS011;391;51.052;6.954;2023-10-13T02:17:03;13.53;;;12.33;;
817;SDS011;391;51.052;6.954;2023-10-13T02:19:14;14.10;;;12.80;;
817;SDS011;391;51.052;6.954;2023-10-13T02:21:20;15.30;;;14.00;;
817;SDS011;391;51.052;6.954;2023-10-13T02:23:24;14.90;;;13.40;;
817;SDS011;391;51.052;6.954;2023-10-13T02:25:30;14.50;;;13.30;;
817;SDS011;391;51.052;6.954;2023-10-13T02:27:37;13.17;;;12.07;;
817;SDS011;391;51.052;6.954;2023-10-13T02:29:43;14.67;;;13.47;;
817;SDS011;391;51.052;6.954;2023-10-13T02:31:49;15.80;;;14.47;;
817;SDS011;391;51.052;6.954;2023-10-13T02:33:57;22.07;;;19.97;;
817;SDS011;391;51.052;6.954;2023-10-13T02:36:02;13.37;;;12.30;;
817;SDS011;391;51.052;6.954;2023-10-13T02:38:07;14.80;;;13.50;;
817;SDS011;391;51.052;6.954;2023-10-13T02:40:13;15.50;;;14.10;;
817;SDS011;391;51.052;6.954;2023-10-13T02:42:17;15.57;;;14.07;;
817;SDS011;391;51.052;6.954;2023-10-13T02:44:25;14.73;;;13.33;;
817;SDS011;391;51.052;6.954;2023-10-13T02:46:34;14.23;;;12.43;;
817;SDS011;391;51.052;6.954;2023-10-13T02:48:40;14.07;;;12.87;;
817;SDS011;391;51.052;6.954;2023-10-13T02:50:54;15.37;;;13.37;;
817;SDS011;391;51.052;6.954;2023-10-13T02:52:57;13.80;;;12.37;;
817;SDS011;391;51.052;6.954;2023-10-13T02:55:01;13.30;;;12.20;;
817;SDS011;391;51.052;6.954;2023-10-13T02:57:10;14.17;;;13.07;;
817;SDS011;391;51.052;6.954;2023-10-13T02:59:14;16.93;;;14.17;;
817;SDS011;391;51.052;6.954;2023-10-13T03:01:17;14.50;;;13.07;;
817;SDS011;391;51.052;6.954;2023-10-13T03:03:20;14.73;;;13.33;;
817;SDS011;391;51.052;6.954;2023-10-13T03:05:26;15.03;;;13.50;;
817;SDS011;391;51.052;6.954;2023-10-13T03:07:34;14.93;;;13.63;;
817;SDS011;391;51.052;6.954;2023-10-13T03:09:38;21.17;;;19.03;;
817;SDS011;391;51.052;6.954;2023-10-13T03:11:51;14.47;;;13.00;;
817;SDS011;391;51.052;6.954;2023-10-13T03:13:54;16.67;;;15.07;;
817;SDS011;391;51.052;6.954;2023-10-13T03:15:57;15.33;;;13.97;;
817;SDS011;391;51.052;6.954;2023-10-13T03:18:00;15.10;;;13.80;;
817;SDS011;391;51.052;6.954;2023-10-13T03:20:04;15.87;;;14.27;;
817;SDS011;391;51.052;6.954;2023-10-13T03:22:14;16.73;;;15.00;;
817;SDS011;391;51.052;6.954;2023-10-13T03:24:19;16.13;;;14.50;;
817;SDS011;391;51.052;6.954;2023-10-13T03:26:25;16.33;;;14.33;;
817;SDS011;391;51.052;6.954;2023-10-13T03:28:29;16.73;;;14.80;;
817;SDS011;391;51.052;6.954;2023-10-13T03:30:36;16.20;;;14.87;;
817;SDS011;391;51.052;6.954;2023-10-13T03:32:44;15.83;;;14.47;;
817;SDS011;391;51.052;6.954;2023-10-13T03:34:48;15.27;;;13.77;;
817;SDS011;391;51.052;6.954;2023-10-13T03:37:14;16.53;;;15.03;;
817;SDS011;391;51.052;6.954;2023-10-13T03:39:20;16.57;;;15.07;;
817;SDS011;391;51.052;6.954;2023-10-13T03:41:29;17.20;;;15.60;;
817;SDS011;391;51.052;6.954;2023-10-13T03:43:32;17.93;;;16.23;;
817;SDS011;391;51.052;6.954;2023-10-13T03:45:47;20.47;;;18.57;;
817;SDS011;391;51.052;6.954;2023-10-13T03:47:54;17.00;;;15.30;;
817;SDS011;391;51.052;6.954;2023-10-13T03:49:57;15.13;;;13.63;;
817;SDS011;391;51.052;6.954;2023-10-13T03:52:16;15.90;;;14.30;;
817;SDS011;391;51.052;6.954;2023-10-13T03:54:24;16.80;;;15.30;;
817;SDS011;391;51.052;6.954;2023-10-13T03:56:31;18.53;;;16.93;;
817;SDS011;391;51.052;6.954;2023-10-13T03:58:42;16.10;;;14.60;;
817;SDS011;391;51.052;6.954;2023-10-13T04:00:48;17.43;;;15.70;;
817;SDS011;391;51.052;6.954;2023-10-13T04:02:51;18.17;;;16.53;;
817;SDS011;391;51.052;6.954;2023-10-13T04:05:10;17.77;;;16.07;;
817;SDS011;391;51.052;6.954;2023-10-13T04:07:33;16.33;;;14.80;;
817;SDS011;391;51.052;6.954;2023-10-13T04:10:03;17.70;;;15.50;;
817;SDS011;391;51.052;6.954;2023-10-13T04:12:25;17.03;;;15.63;;
817;SDS011;391;51.052;6.954;2023-10-13T04:14:56;17.27;;;15.50;;
817;SDS011;391;51.052;6.954;2023-10-13T04:17:25;16.63;;;15.07;;
817;SDS011;391;51.052;6.954;2023-10-13T04:19:29;17.20;;;15.63;;
817;SDS011;391;51.052;6.954;2023-10-13T04:21:54;16.10;;;14.53;;
817;SDS011;391;51.052;6.954;2023-10-13T04:24:02;17.03;;;15.37;;
817;SDS011;391;51.052;6.954;2023-10-13T04:26:25;16.70;;;15.10;;
817;SDS011;391;51.052;6.954;2023-10-13T04:28:38;16.30;;;15.00;;
817;SDS011;391;51.052;6.954;2023-10-13T04:30:52;16.27;;;14.80;;
817;SDS011;391;51.052;6.954;2023-10-13T04:33:02;35.73;;;32.13;;
817;SDS011;391;51.052;6.954;2023-10-13T04:35:38;18.10;;;16.50;;
817;SDS011;391;51.052;6.954;2023-10-13T04:37:49;17.53;;;15.97;;
817;SDS011;391;51.052;6.954;2023-10-13T04:39:54;18.33;;;16.63;;
817;SDS011;391;51.052;6.954;2023-10-13T04:42:01;17.57;;;16.00;;
817;SDS011;391;51.052;6.954;2023-10-13T04:44:16;19.60;;;17.57;;
817;SDS011;391;51.052;6.954;2023-10-13T04:46:52;18.40;;;16.80;;
817;SDS011;391;51.052;6.954;2023-10-13T04:49:11;19.37;;;17.57;;
817;SDS011;391;51.052;6.954;2023-10-13T04:51:29;18.50;;;16.67;;
817;SDS011;391;51.052;6.954;2023-10-13T04:53:53;18.57;;;16.60;;
817;SDS011;391;51.052;6.954;2023-10-13T04:56:07;20.47;;;18.37;;
817;SDS011;391;51.052;6.954;2023-10-13T04:58:30;19.17;;;17.37;;
817;SDS011;391;51.052;6.954;2023-10-13T05:01:00;18.23;;;16.73;;
817;SDS011;391;51.052;6.954;2023-10-13T05:03:40;20.40;;;18.47;;
817;SDS011;391;51.052;6.954;2023-10-13T05:06:05;19.30;;;17.77;;
817;SDS011;391;51.052;6.954;2023-10-13T05:08:29;21.67;;;19.83;;
817;SDS011;391;51.052;6.954;2023-10-13T05:10:50;24.97;;;19.97;;
817;SDS011;391;51.052;6.954;2023-10-13T05:13:11;21.03;;;19.13;;
817;SDS011;391;51.052;6.954;2023-10-13T05:15:32;20.53;;;18.47;;
817;SDS011;391;51.052;6.954;2023-10-13T05:17:54;21.10;;;18.23;;
817;SDS011;391;51.052;6.954;2023-10-13T05:20:15;18.73;;;16.97;;
817;SDS011;391;51.052;6.954;2023-10-13T05:22:37;17.40;;;15.83;;
817;SDS011;391;51.052;6.954;2023-10-13T05:24:58;17.50;;;16.10;;
817;SDS011;391;51.052;6.954;2023-10-13T05:27:19;17.10;;;14.43;;
817;SDS011;391;51.052;6.954;2023-10-13T05:29:40;18.50;;;16.90;;
817;SDS011;391;51.052;6.954;2023-10-13T05:32:01;18.03;;;16.23;;
817;SDS011;391;51.052;6.954;2023-10-13T05:34:24;19.43;;;17.67;;
817;SDS011;391;51.052;6.954;2023-10-13T05:36:45;19.83;;;17.93;;
817;SDS011;391;51.052;6.954;2023-10-13T05:39:06;18.27;;;16.37;;
817;SDS011;391;51.052;6.954;2023-10-13T05:41:27;20.10;;;18.13;;
817;SDS011;391;51.052;6.954;2023-10-13T05:43:48;19.90;;;17.93;;
817;SDS011;391;51.052;6.954;2023-10-13T05:46:09;19.63;;;18.03;;
817;SDS011;391;51.052;6.954;2023-10-13T05:48:30;17.87;;;16.20;;
817;SDS011;391;51.052;6.954;2023-10-13T05:50:52;21.23;;;17.83;;
817;SDS011;391;51.052;6.954;2023-10-13T05:53:15;18.70;;;17.00;;
817;SDS011;391;51.052;6.954;2023-10-13T05:55:36;16.77;;;14.93;;
817;SDS011;391;51.052;6.954;2023-10-13T05:57:57;17.30;;;15.50;;
817;SDS011;391;51.052;6.954;2023-10-13T06:00:19;16.83;;;15.43;;
817;SDS011;391;51.052;6.954;2023-10-13T06:02:40;17.63;;;15.93;;
817;SDS011;391;51.052;6.954;2023-10-13T06:05:01;19.70;;;16.37;;
817;SDS011;391;51.052;6.954;2023-10-13T06:07:26;17.10;;;15.20;;
817;SDS011;391;51.052;6.954;2023-10-13T06:09:47;16.80;;;15.30;;
817;SDS011;391;51.052;6.954;2023-10-13T06:12:11;18.30;;;16.37;;
817;SDS011;391;51.052;6.954;2023-10-13T06:14:32;17.07;;;15.53;;
817;SDS011;391;51.052;6.954;2023-10-13T06:16:53;16.80;;;15.10;;
817;SDS011;391;51.052;6.954;2023-10-13T06:19:14;16.97;;;15.23;;
817;SDS011;391;51.052;6.954;2023-10-13T06:21:35;18.20;;;15.67;;
817;SDS011;391;51.052;6.954;2023-10-13T06:23:57;17.43;;;15.50;;
817;SDS011;391;51.052;6.954;2023-10-13T06:26:18;17.20;;;15.80;;
817;SDS011;391;51.052;6.954;2023-10-13T06:28:39;15.77;;;14.63;;
817;SDS011;391;51.052;6.954;2023-10-13T06:30:55;16.43;;;14.73;;
817;SDS011;391;51.052;6.954;2023-10-13T06:32:58;16.20;;;14.70;;
817;SDS011;391;51.052;6.954;2023-10-13T06:35:03;17.97;;;16.37;;
817;SDS011;391;51.052;6.954;2023-10-13T06:37:21;19.73;;;17.63;;
817;SDS011;391;51.052;6.954;2023-10-13T06:39:29;22.87;;;20.30;;
817;SDS011;391;51.052;6.954;2023-10-13T06:41:37;22.20;;;18.77;;
817;SDS011;391;51.052;6.954;2023-10-13T06:43:43;20.80;;;19.07;;
817;SDS011;391;51.052;6.954;2023-10-13T06:45:48;22.90;;;20.73;;
817;SDS011;391;51.052;6.954;2023-10-13T06:47:59;21.33;;;19.00;;
817;SDS011;391;51.052;6.954;2023-10-13T06:50:02;23.17;;;20.67;;
817;SDS011;391;51.052;6.954;2023-10-13T06:52:05;22.30;;;20.20;;
817;SDS011;391;51.052;6.954;2023-10-13T06:54:09;21.57;;;19.27;;
817;SDS011;391;51.052;6.954;2023-10-13T06:56:23;21.10;;;18.97;;
817;SDS011;391;51.052;6.954;2023-10-13T06:58:30;21.30;;;19.50;;
817;SDS011;391;51.052;6.954;2023-10-13T07:00:35;20.73;;;18.73;;
817;SDS011;391;51.052;6.954;2023-10-13T07:02:40;23.00;;;20.43;;
817;SDS011;391;51.052;6.954;2023-10-13T07:04:46;20.87;;;18.77;;
817;SDS011;391;51.052;6.954;2023-10-13T07:06:49;18.93;;;17.17;;
817;SDS011;391;51.052;6.954;2023-10-13T07:08:53;19.73;;;17.83;;
817;SDS011;391;51.052;6.954;2023-10-13T07:10:58;21.47;;;17.87;;
817;SDS011;391;51.052;6.954;2023-10-13T07:13:06;20.67;;;18.67;;
817;SDS011;391;51.052;6.954;2023-10-13T07:15:10;20.73;;;18.77;;
817;SDS011;391;51.052;6.954;2023-10-13T07:17:22;22.00;;;19.33;;
817;SDS011;391;51.052;6.954;2023-10-13T07:19:29;18.83;;;16.93;;
817;SDS011;391;51.052;6.954;2023-10-13T07:21:33;19.93;;;17.97;;
817;SDS011;391;51.052;6.954;2023-10-13T07:23:37;23.67;;;18.57;;
817;SDS011;391;51.052;6.954;2023-10-13T07:25:40;22.87;;;18.77;;
817;SDS011;391;51.052;6.954;2023-10-13T07:27:43;20.93;;;18.60;;
817;SDS011;391;51.052;6.954;2023-10-13T07:29:48;23.43;;;20.77;;
817;SDS011;391;51.052;6.954;2023-10-13T07:31:57;27.83;;;20.30;;
817;SDS011;391;51.052;6.954;2023-10-13T07:34:01;26.77;;;21.77;;
817;SDS011;391;51.052;6.954;2023-10-13T07:36:15;23.57;;;21.27;;
817;SDS011;391;51.052;6.954;2023-10-13T07:38:19;20.33;;;18.30;;
817;SDS011;391;51.052;6.954;2023-10-13T07:40:23;22.90;;;20.47;;
817;SDS011;391;51.052;6.954;2023-10-13T07:42:41;19.07;;;17.07;;
817;SDS011;391;51.052;6.954;2023-10-13T07:44:45;19.77;;;17.57;;
817;SDS011;391;51.052;6.954;2023-10-13T07:46:50;20.13;;;18.00;;
817;SDS011;391;51.052;6.954;2023-10-13T07:49:01;15.60;;;13.70;;
817;SDS011;391;51.052;6.954;2023-10-13T07:51:17;14.80;;;13.33;;
817;SDS011;391;51.052;6.954;2023-10-13T07:53:20;14.00;;;12.50;;
817;SDS011;391;51.052;6.954;2023-10-13T07:55:25;15.43;;;11.80;;
817;SDS011;391;51.052;6.954;2023-10-13T07:57:29;19.33;;;12.17;;
817;SDS011;391;51.052;6.954;2023-10-13T07:59:32;16.17;;;10.90;;
817;SDS011;391;51.052;6.954;2023-10-13T08:01:50;11.70;;;10.53;;
817;SDS011;391;51.052;6.954;2023-10-13T08:04:08;14.13;;;9.80;;
817;SDS011;391;51.052;6.954;2023-10-13T08:06:14;11.40;;;10.30;;
817;SDS011;391;51.052;6.954;2023-10-13T08:08:30;11.53;;;10.37;;
817;SDS011;391;51.052;6.954;2023-10-13T08:10:40;11.47;;;10.47;;
817;SDS011;391;51.052;6.954;2023-10-13T08:12:44;14.53;;;11.27;;
817;SDS011;391;51.052;6.954;2023-10-13T08:14:47;23.07;;;10.80;;
817;SDS011;391;51.052;6.954;2023-10-13T08:16:52;16.57;;;11.70;;
817;SDS011;391;51.052;6.954;2023-10-13T08:18:56;11.43;;;10.30;;
817;SDS011;391;51.052;6.954;2023-10-13T08:21:03;14.63;;;10.80;;
817;SDS011;391;51.052;6.954;2023-10-13T08:23:06;12.57;;;10.87;;
817;SDS011;391;51.052;6.954;2023-10-13T08:25:36;14.07;;;10.90;;
817;SDS011;391;51.052;6.954;2023-10-13T08:27:53;15.83;;;10.43;;
817;SDS011;391;51.052;6.954;2023-10-13T08:30:23;11.40;;;10.03;;
817;SDS011;391;51.052;6.954;2023-10-13T08:32:32;13.43;;;9.93;;
817;SDS011;391;51.052;6.954;2023-10-13T08:34:56;13.27;;;10.77;;
817;SDS011;391;51.052;6.954;2023-10-13T08:37:24;13.10;;;9.90;;
817;SDS011;391;51.052;6.954;2023-10-13T08:39:31;12.90;;;10.50;;
817;SDS011;391;51.052;6.954;2023-10-13T08:41:48;11.73;;;9.07;;
817;SDS011;391;51.052;6.954;2023-10-13T08:44:14;11.93;;;9.47;;
817;SDS011;391;51.052;6.954;2023-10-13T08:46:46;12.83;;;9.30;;
817;SDS011;391;51.052;6.954;2023-10-13T08:49:06;15.73;;;9.10;;
817;SDS011;391;51.052;6.954;2023-10-13T08:51:15;11.57;;;9.43;;
817;SDS011;391;51.052;6.954;2023-10-13T08:53:33;10.30;;;9.20;;
817;SDS011;391;51.052;6.954;2023-10-13T08:55:46;17.43;;;9.37;;
817;SDS011;391;51.052;6.954;2023-10-13T08:58:04;13.83;;;10.10;;
817;SDS011;391;51.052;6.954;2023-10-13T09:00:16;13.07;;;8.67;;
817;SDS011;391;51.052;6.954;2023-10-13T09:02:52;9.33;;;8.17;;
817;SDS011;391;51.052;6.954;2023-10-13T09:05:19;13.10;;;9.23;;
817;SDS011;391;51.052;6.954;2023-10-13T09:07:45;9.60;;;8.70;;
817;SDS011;391;51.052;6.954;2023-10-13T09:10:04;12.67;;;9.70;;
817;SDS011;391;51.052;6.954;2023-10-13T09:12:35;13.43;;;10.67;;
817;SDS011;391;51.052;6.954;2023-10-13T09:14:38;9.77;;;9.03;;
817;SDS011;391;51.052;6.954;2023-10-13T09:16:45;12.33;;;11.13;;
817;SDS011;391;51.052;6.954;2023-10-13T09:19:09;12.03;;;11.03;;
817;SDS011;391;51.052;6.954;2023-10-13T09:21:16;11.53;;;10.70;;
817;SDS011;391;51.052;6.954;2023-10-13T09:23:51;13.47;;;12.33;;
817;SDS011;391;51.052;6.954;2023-10-13T09:26:12;13.00;;;11.80;;
817;SDS011;391;51.052;6.954;2023-10-13T09:28:16;13.17;;;12.00;;
817;SDS011;391;51.052;6.954;2023-10-13T09:30:21;14.20;;;13.00;;
817;SDS011;391;51.052;6.954;2023-10-13T09:32:25;16.37;;;13.53;;
817;SDS011;391;51.052;6.954;2023-10-13T09:34:30;14.73;;;13.60;;
817;SDS011;391;51.052;6.954;2023-10-13T09:36:37;15.37;;;14.20;;
817;SDS011;391;51.052;6.954;2023-10-13T09:38:41;15.57;;;14.20;;
817;SDS011;391;51.052;6.954;2023-10-13T09:40:50;15.13;;;13.93;;
817;SDS011;391;51.052;6.954;2023-10-13T09:42:59;15.53;;;14.33;;
817;SDS011;391;51.052;6.954;2023-10-13T09:45:09;15.47;;;14.37;;
817;SDS011;391;51.052;6.954;2023-10-13T09:47:16;16.30;;;15.10;;
817;SDS011;391;51.052;6.954;2023-10-13T09:49:26;15.97;;;14.97;;
817;SDS011;391;51.052;6.954;2023-10-13T09:51:48;16.90;;;15.70;;
817;SDS011;391;51.052;6.954;2023-10-13T09:53:51;17.20;;;16.07;;
817;SDS011;391;51.052;6.954;2023-10-13T09:56:21;16.20;;;14.90;;
817;SDS011;391;51.052;6.954;2023-10-13T09:58:29;16.10;;;15.00;;
817;SDS011;391;51.052;6.954;2023-10-13T10:00:40;16.87;;;15.67;;
817;SDS011;391;51.052;6.954;2023-10-13T10:02:51;17.53;;;15.90;;
817;SDS011;391;51.052;6.954;2023-10-13T10:05:00;16.53;;;15.23;;
817;SDS011;391;51.052;6.954;2023-10-13T10:07:25;16.80;;;15.70;;
817;SDS011;391;51.052;6.954;2023-10-13T10:09:30;16.80;;;15.47;;
817;SDS011;391;51.052;6.954;2023-10-13T10:11:48;17.27;;;16.17;;
817;SDS011;391;51.052;6.954;2023-10-13T10:14:09;18.77;;;17.33;;
817;SDS011;391;51.052;6.954;2023-10-13T10:16:20;17.83;;;16.63;;
817;SDS011;391;51.052;6.954;2023-10-13T10:18:32;17.93;;;16.60;;
817;SDS011;391;51.052;6.954;2023-10-13T10:20:35;18.53;;;17.23;;
817;SDS011;391;51.052;6.954;2023-10-13T10:22:54;17.57;;;16.40;;
817;SDS011;391;51.052;6.954;2023-10-13T10:25:01;17.57;;;16.47;;
817;SDS011;391;51.052;6.954;2023-10-13T10:27:05;17.20;;;16.10;;
817;SDS011;391;51.052;6.954;2023-10-13T10:29:10;18.10;;;16.90;;
817;SDS011;391;51.052;6.954;2023-10-13T10:31:15;18.80;;;17.60;;
817;SDS011;391;51.052;6.954;2023-10-13T10:33:29;18.60;;;17.37;;
817;SDS011;391;51.052;6.954;2023-10-13T10:35:35;17.70;;;16.37;;
817;SDS011;391;51.052;6.954;2023-10-13T10:37:40;18.60;;;17.27;;
817;SDS011;391;51.052;6.954;2023-10-13T10:39:50;18.40;;;17.40;;
817;SDS011;391;51.052;6.954;2023-10-13T10:42:07;19.07;;;17.30;;
817;SDS011;391;51.052;6.954;2023-10-13T10:44:17;19.07;;;17.67;;
817;SDS011;391;51.052;6.954;2023-10-13T10:46:28;21.97;;;20.17;;
817;SDS011;391;51.052;6.954;2023-10-13T10:48:40;19.23;;;17.73;;
817;SDS011;391;51.052;6.954;2023-10-13T10:50:51;18.77;;;17.67;;
817;SDS011;391;51.052;6.954;2023-10-13T10:52:56;21.63;;;19.83;;
817;SDS011;391;51.052;6.954;2023-10-13T10:55:01;19.17;;;17.70;;
817;SDS011;391;51.052;6.954;2023-10-13T10:57:08;20.53;;;19.07;;
817;SDS011;391;51.052;6.954;2023-10-13T10:59:19;20.80;;;19.30;;
817;SDS011;391;51.052;6.954;2023-10-13T11:01:27;18.87;;;17.50;;
817;SDS011;391;51.052;6.954;2023-10-13T11:03:40;20.00;;;18.77;;
817;SDS011;391;51.052;6.954;2023-10-13T11:05:44;20.67;;;19.33;;
817;SDS011;391;51.052;6.954;2023-10-13T11:07:50;20.40;;;19.00;;
817;SDS011;391;51.052;6.954;2023-10-13T11:09:53;21.60;;;20.27;;
817;SDS011;391;51.052;6.954;2023-10-13T11:12:10;22.80;;;21.07;;
817;SDS011;391;51.052;6.954;2023-10-13T11:14:21;22.27;;;20.73;;
817;SDS011;391;51.052;6.954;2023-10-13T11:16:28;21.50;;;20.00;;
817;SDS011;391;51.052;6.954;2023-10-13T11:18:37;22.17;;;20.97;;
817;SDS011;391;51.052;6.954;2023-10-13T11:20:42;23.13;;;21.53;;
817;SDS011;391;51.052;6.954;2023-10-13T11:22:47;21.80;;;20.50;;
817;SDS011;391;51.052;6.954;2023-10-13T11:24:50;22.73;;;21.20;;
817;SDS011;391;51.052;6.954;2023-10-13T11:26:55;22.30;;;20.80;;
817;SDS011;391;51.052;6.954;2023-10-13T11:29:02;23.73;;;21.70;;
817;SDS011;391;51.052;6.954;2023-10-13T11:31:12;21.37;;;19.67;;
817;SDS011;391;51.052;6.954;2023-10-13T11:33:21;21.27;;;19.73;;
817;SDS011;391;51.052;6.954;2023-10-13T11:35:26;21.63;;;20.23;;
817;SDS011;391;51.052;6.954;2023-10-13T11:37:50;22.60;;;21.10;;
817;SDS011;391;51.052;6.954;2023-10-13T11:39:58;24.40;;;22.57;;
817;SDS011;391;51.052;6.954;2023-10-13T11:42:02;23.10;;;21.27;;
817;SDS011;391;51.052;6.954;2023-10-13T11:44:14;23.20;;;21.30;;
817;SDS011;391;51.052;6.954;2023-10-13T11:46:26;22.33;;;20.73;;
817;SDS011;391;51.052;6.954;2023-10-13T11:48:53;23.90;;;22.30;;
817;SDS011;391;51.052;6.954;2023-10-13T11:50:57;22.30;;;20.70;;
817;SDS011;391;51.052;6.954;2023-10-13T11:53:00;24.73;;;22.27;;
817;SDS011;391;51.052;6.954;2023-10-13T11:55:03;22.40;;;21.00;;
817;SDS011;391;51.052;6.954;2023-10-13T11:57:08;24.43;;;22.33;;
817;SDS011;391;51.052;6.954;2023-10-13T11:59:11;22.27;;;20.40;;
817;SDS011;391;51.052;6.954;2023-10-13T12:01:20;21.37;;;19.87;;
817;SDS011;391;51.052;6.954;2023-10-13T12:03:44;21.80;;;20.27;;
817;SDS011;391;51.052;6.954;2023-10-13T12:06:09;22.90;;;21.10;;
817;SDS011;391;51.052;6.954;2023-10-13T12:08:24;22.00;;;20.40;;
817;SDS011;391;51.052;6.954;2023-10-13T12:10:35;22.73;;;20.90;;
817;SDS011;391;51.052;6.954;2023-10-13T12:12:51;21.80;;;20.33;;
817;SDS011;391;51.052;6.954;2023-10-13T12:14:56;21.37;;;20.07;;
817;SDS011;391;51.052;6.954;2023-10-13T12:17:01;22.63;;;21.03;;
817;SDS011;391;51.052;6.954;2023-10-13T12:19:07;22.57;;;20.70;;
817;SDS011;391;51.052;6.954;2023-10-13T12:21:13;21.33;;;19.73;;
817;SDS011;391;51.052;6.954;2023-10-13T12:23:21;21.67;;;20.07;;
817;SDS011;391;51.052;6.954;2023-10-13T12:25:34;22.10;;;20.30;;
817;SDS011;391;51.052;6.954;2023-10-13T12:27:46;21.90;;;20.50;;
817;SDS011;391;51.052;6.954;2023-10-13T12:29:51;22.33;;;20.53;;
817;SDS011;391;51.052;6.954;2023-10-13T12:31:54;21.63;;;20.23;;
817;SDS011;391;51.052;6.954;2023-10-13T12:34:11;22.47;;;20.63;;
817;SDS011;391;51.052;6.954;2023-10-13T12:36:21;21.50;;;20.10;;
817;SDS011;391;51.052;6.954;2023-10-13T12:38:43;22.67;;;20.80;;
817;SDS011;391;51.052;6.954;2023-10-13T12:41:04;22.27;;;20.53;;
817;SDS011;391;51.052;6.954;2023-10-13T12:43:35;22.20;;;20.60;;
817;SDS011;391;51.052;6.954;2023-10-13T12:45:56;22.00;;;20.33;;
817;SDS011;391;51.052;6.954;2023-10-13T12:48:18;21.57;;;20.07;;
817;SDS011;391;51.052;6.954;2023-10-13T12:50:41;22.60;;;21.07;;
817;SDS011;391;51.052;6.954;2023-10-13T12:52:46;22.93;;;21.33;;
817;SDS011;391;51.052;6.954;2023-10-13T12:54:50;21.73;;;20.33;;
817;SDS011;391;51.052;6.954;2023-10-13T12:57:01;21.20;;;19.80;;
817;SDS011;391;51.052;6.954;2023-10-13T12:59:04;22.07;;;20.73;;
817;SDS011;391;51.052;6.954;2023-10-13T13:01:11;22.73;;;20.93;;
817;SDS011;391;51.052;6.954;2023-10-13T13:03:15;22.87;;;20.80;;
817;SDS011;391;51.052;6.954;2023-10-13T13:05:19;21.97;;;20.10;;
817;SDS011;391;51.052;6.954;2023-10-13T13:07:26;22.80;;;21.60;;
817;SDS011;391;51.052;6.954;2023-10-13T13:09:32;22.70;;;21.10;;
817;SDS011;391;51.052;6.954;2023-10-13T13:11:39;23.97;;;22.23;;
817;SDS011;391;51.052;6.954;2023-10-13T13:13:43;22.97;;;21.20;;
817;SDS011;391;51.052;6.954;2023-10-13T13:15:48;24.00;;;22.20;;
817;SDS011;391;51.052;6.954;2023-10-13T13:17:51;23.33;;;21.33;;
817;SDS011;391;51.052;6.954;2023-10-13T13:19:54;23.83;;;22.27;;
817;SDS011;391;51.052;6.954;2023-10-13T13:21:58;23.30;;;21.70;;
817;SDS011;391;51.052;6.954;2023-10-13T13:24:03;24.00;;;22.33;;
817;SDS011;391;51.052;6.954;2023-10-13T13:26:12;23.37;;;21.90;;
817;SDS011;391;51.052;6.954;2023-10-13T13:28:19;23.90;;;22.10;;
817;SDS011;391;51.052;6.954;2023-10-13T13:30:26;25.77;;;23.40;;
817;SDS011;391;51.052;6.954;2023-10-13T13:32:35;24.37;;;22.63;;
817;SDS011;391;51.052;6.954;2023-10-13T13:34:39;25.37;;;23.17;;